createdAt,value
2023-01-18T00:01:42.461Z,10.20
2023-01-18T00:04:09.421Z,10.97
2023-01-18T00:06:36.258Z,10.43
2023-01-18T00:09:03.255Z,11.17
2023-01-18T00:11:30.274Z,13.27
2023-01-18T00:13:57.207Z,10.60
2023-01-18T00:16:27.761Z,13.47
2023-01-18T00:18:59.645Z,11.23
2023-01-18T00:21:28.112Z,9.27
2023-01-18T00:23:59.176Z,12.57
2023-01-18T00:26:26.116Z,12.00
2023-01-18T00:29:04.659Z,11.70
2023-01-18T00:31:31.727Z,13.73
2023-01-18T00:34:04.787Z,13.33
2023-01-18T00:39:22.960Z,12.17
2023-01-18T00:42:10.760Z,14.53
2023-01-18T00:44:40.552Z,15.00
2023-01-18T00:47:19.443Z,12.10
2023-01-18T00:49:53.740Z,12.97
2023-01-18T00:52:20.947Z,14.70
2023-01-18T00:54:49.843Z,13.17
2023-01-18T00:57:16.800Z,15.90
2023-01-18T00:59:43.519Z,17.17
2023-01-18T01:02:18.067Z,14.93
2023-01-18T01:05:03.506Z,15.07
2023-01-18T01:07:33.062Z,15.90
2023-01-18T01:10:07.706Z,17.67
2023-01-18T01:12:54.038Z,18.37
2023-01-18T01:15:39.374Z,17.53
2023-01-18T01:18:24.861Z,20.30
2023-01-18T01:21:09.867Z,15.77
2023-01-18T01:23:55.377Z,17.50
2023-01-18T01:26:21.944Z,20.10
2023-01-18T01:28:52.663Z,20.47
2023-01-18T01:31:20.355Z,15.97
2023-01-18T01:33:50.154Z,15.53
2023-01-18T01:36:20.091Z,15.87
2023-01-18T01:38:47.175Z,16.50
2023-01-18T01:41:20.849Z,15.23
2023-01-18T01:43:53.254Z,14.30
2023-01-18T01:46:22.549Z,17.50
2023-01-18T01:48:49.193Z,16.90
2023-01-18T01:51:20.371Z,16.60
2023-01-18T01:53:51.020Z,16.80
2023-01-18T01:56:20.377Z,16.77
2023-01-18T01:58:51.622Z,15.60
2023-01-18T02:01:19.124Z,17.73
2023-01-18T02:03:46.101Z,22.70
2023-01-18T02:06:32.690Z,16.87
2023-01-18T02:09:08.909Z,21.50
2023-01-18T02:11:35.920Z,23.87
2023-01-18T02:14:07.887Z,17.53
2023-01-18T02:17:09.569Z,18.70
2023-01-18T02:20:07.421Z,18.30
2023-01-18T02:22:48.234Z,15.40
2023-01-18T02:25:42.295Z,18.13
2023-01-18T02:28:17.683Z,18.93
2023-01-18T02:30:56.039Z,18.57
2023-01-18T02:33:39.486Z,19.53
2023-01-18T02:36:07.091Z,21.33
2023-01-18T02:38:47.114Z,22.20
2023-01-18T02:41:46.137Z,18.97
2023-01-18T02:44:35.147Z,16.53
2023-01-18T02:47:04.125Z,18.23
2023-01-18T02:49:32.262Z,16.33
2023-01-18T02:52:06.937Z,18.73
2023-01-18T02:54:39.368Z,17.07
2023-01-18T02:57:13.279Z,20.17
2023-01-18T02:59:45.606Z,16.83
2023-01-18T03:02:16.618Z,19.43
2023-01-18T03:04:57.344Z,16.20
2023-01-18T03:07:29.588Z,16.20
2023-01-18T03:09:58.324Z,17.40
2023-01-18T03:12:46.077Z,18.17
2023-01-18T03:15:50.441Z,18.47
2023-01-18T03:19:00.894Z,20.23
2023-01-18T03:21:42.907Z,19.07
2023-01-18T03:24:11.386Z,19.63
2023-01-18T03:26:44.880Z,17.67
2023-01-18T03:29:32.177Z,17.50
2023-01-18T03:32:20.511Z,18.93
2023-01-18T03:35:07.967Z,16.10
2023-01-18T03:37:44.492Z,17.80
2023-01-18T03:40:19.778Z,20.53
2023-01-18T03:43:10.832Z,20.63
2023-01-18T03:45:41.801Z,20.70
2023-01-18T03:48:09.634Z,22.43
2023-01-18T03:51:00.968Z,22.83
2023-01-18T03:53:39.124Z,18.90
2023-01-18T03:56:13.797Z,19.97
2023-01-18T03:58:42.288Z,19.10
2023-01-18T04:01:09.583Z,19.90
2023-01-18T04:03:36.791Z,19.73
2023-01-18T04:06:06.219Z,19.90
2023-01-18T04:08:32.893Z,22.73
2023-01-18T04:10:59.891Z,21.03
2023-01-18T04:13:26.473Z,23.47
2023-01-18T04:15:53.128Z,21.97
2023-01-18T04:18:19.793Z,20.80
2023-01-18T04:20:46.425Z,21.67
2023-01-18T04:23:13.069Z,18.97
2023-01-18T04:25:40.830Z,22.77
2023-01-18T04:28:07.454Z,23.87
2023-01-18T04:30:34.007Z,23.10
2023-01-18T04:33:01.534Z,20.70
2023-01-18T04:35:28.449Z,19.73
2023-01-18T04:37:55.370Z,18.87
2023-01-18T04:40:22.071Z,18.80
2023-01-18T04:42:53.441Z,20.00
2023-01-18T04:45:20.586Z,19.83
2023-01-18T04:47:47.199Z,19.93
2023-01-18T04:50:13.951Z,21.07
2023-01-18T04:52:40.572Z,19.90
2023-01-18T04:55:07.944Z,17.30
2023-01-18T04:57:34.744Z,19.40
2023-01-18T05:00:02.249Z,17.40
2023-01-18T05:02:28.994Z,17.77
2023-01-18T05:04:55.850Z,21.93
2023-01-18T05:07:33.037Z,20.00
2023-01-18T05:10:04.060Z,19.97
2023-01-18T05:12:31.155Z,29.57
2023-01-18T05:14:57.727Z,22.37
2023-01-18T05:17:30.446Z,23.47
2023-01-18T05:19:57.118Z,21.47
2023-01-18T05:22:23.750Z,20.17
2023-01-18T05:24:50.383Z,22.37
2023-01-18T05:27:17.028Z,23.37
2023-01-18T05:29:44.081Z,20.53
2023-01-18T05:32:11.374Z,21.97
2023-01-18T05:34:38.102Z,21.67
2023-01-18T05:37:04.650Z,19.17
2023-01-18T05:39:31.358Z,22.80
2023-01-18T05:42:00.122Z,20.93
2023-01-18T05:44:27.789Z,19.77
2023-01-18T05:46:57.758Z,24.33
2023-01-18T05:49:24.476Z,24.80
2023-01-18T05:51:51.972Z,22.43
2023-01-18T05:54:20.016Z,21.63
2023-01-18T05:56:46.870Z,26.60
2023-01-18T05:59:15.517Z,24.87
2023-01-18T06:01:43.266Z,22.33
2023-01-18T06:04:10.250Z,25.90
2023-01-18T06:06:37.656Z,24.37
2023-01-18T06:09:05.178Z,26.53
2023-01-18T06:11:32.119Z,24.47
2023-01-18T06:13:58.839Z,24.07
2023-01-18T06:16:25.497Z,26.57
2023-01-18T06:18:52.796Z,28.80
2023-01-18T06:21:19.384Z,25.87
2023-01-18T06:23:46.043Z,26.60
2023-01-18T06:26:34.139Z,28.57
2023-01-18T06:29:01.834Z,34.43
2023-01-18T06:31:29.043Z,31.60
2023-01-18T06:33:55.875Z,56.40
2023-01-18T06:36:22.567Z,81.90
2023-01-18T06:38:49.303Z,37.57
2023-01-18T06:41:15.941Z,27.23
2023-01-18T06:43:43.224Z,25.73
2023-01-18T06:46:11.755Z,24.60
2023-01-18T06:48:38.767Z,25.53
2023-01-18T06:51:05.873Z,25.50
2023-01-18T06:53:32.730Z,24.67
2023-01-18T06:56:01.666Z,27.33
2023-01-18T06:58:31.408Z,26.63
2023-01-18T07:00:59.743Z,33.03
2023-01-18T07:03:28.159Z,31.27
2023-01-18T07:05:56.214Z,32.40
2023-01-18T07:08:23.734Z,32.93
2023-01-18T07:10:52.967Z,34.37
2023-01-18T07:13:21.063Z,28.67
2023-01-18T07:15:57.984Z,29.07
2023-01-18T07:18:26.531Z,34.90
2023-01-18T07:21:14.344Z,46.17
2023-01-18T07:23:42.750Z,55.77
2023-01-18T07:26:16.648Z,44.07
2023-01-18T07:28:45.508Z,39.97
2023-01-18T07:31:13.493Z,32.77
2023-01-18T07:33:40.035Z,32.33
2023-01-18T07:36:07.396Z,35.10
2023-01-18T07:38:35.335Z,30.50
2023-01-18T07:41:10.657Z,35.07
2023-01-18T07:43:38.461Z,34.73
2023-01-18T07:46:07.120Z,34.67
2023-01-18T07:48:38.071Z,41.53
2023-01-18T07:51:08.808Z,35.40
2023-01-18T07:53:37.754Z,36.83
2023-01-18T07:56:07.336Z,32.73
2023-01-18T07:58:36.268Z,33.60
2023-01-18T08:01:11.777Z,34.13
2023-01-18T08:03:39.446Z,33.93
2023-01-18T08:06:10.011Z,38.63
2023-01-18T08:08:37.381Z,34.70
2023-01-18T08:11:06.703Z,36.07
2023-01-18T08:13:33.503Z,37.17
2023-01-18T08:16:05.018Z,33.43
2023-01-18T08:18:31.589Z,37.20
2023-01-18T08:20:58.728Z,32.13
2023-01-18T08:23:25.802Z,36.47
2023-01-18T08:25:52.536Z,38.67
2023-01-18T08:28:19.647Z,34.67
2023-01-18T08:30:49.322Z,34.97
2023-01-18T08:33:16.499Z,42.53
2023-01-18T08:35:48.402Z,42.17
2023-01-18T08:38:16.357Z,37.23
2023-01-18T08:40:44.248Z,40.00
2023-01-18T08:43:12.311Z,36.03
2023-01-18T08:45:40.083Z,34.40
2023-01-18T08:48:09.997Z,36.53
2023-01-18T08:50:39.928Z,38.97
2023-01-18T08:53:06.849Z,34.77
2023-01-18T08:55:35.778Z,40.47
2023-01-18T08:58:02.622Z,42.10
2023-01-18T09:00:30.366Z,34.03
2023-01-18T09:02:59.337Z,35.87
2023-01-18T09:05:27.081Z,31.70
2023-01-18T09:07:56.075Z,32.23
2023-01-18T09:10:24.197Z,34.50
2023-01-18T09:12:52.935Z,35.70
2023-01-18T09:15:21.136Z,35.07
2023-01-18T09:17:47.646Z,34.27
2023-01-18T09:20:16.560Z,32.93
2023-01-18T09:22:45.901Z,31.30
2023-01-18T09:25:13.279Z,32.10
2023-01-18T09:27:40.780Z,26.17
2023-01-18T09:30:09.677Z,24.43
2023-01-18T09:32:37.565Z,19.83
2023-01-18T09:35:06.008Z,18.67
2023-01-18T09:37:32.699Z,20.50
2023-01-18T09:40:01.287Z,17.83
2023-01-18T09:42:36.217Z,22.87
2023-01-18T09:45:04.626Z,23.33
2023-01-18T09:47:43.064Z,17.00
2023-01-18T09:50:19.033Z,16.77
2023-01-18T09:53:16.307Z,15.00
2023-01-18T09:55:52.169Z,18.27
2023-01-18T09:58:35.103Z,17.27
2023-01-18T10:01:13.779Z,15.73
2023-01-18T10:04:17.250Z,16.67
2023-01-18T10:07:00.001Z,17.20
2023-01-18T10:09:49.353Z,20.33
2023-01-18T10:12:46.823Z,16.47
2023-01-18T10:15:29.161Z,17.40
2023-01-18T10:18:00.835Z,17.60
2023-01-18T10:20:47.214Z,14.77
2023-01-18T10:23:44.222Z,15.93
2023-01-18T10:26:21.659Z,16.10
2023-01-18T10:29:03.773Z,15.77
2023-01-18T10:31:58.387Z,15.73
2023-01-18T10:34:34.568Z,17.20
2023-01-18T10:37:18.507Z,16.67
2023-01-18T10:40:00.732Z,16.20
2023-01-18T10:42:41.219Z,18.07
2023-01-18T10:45:22.689Z,15.97
2023-01-18T10:47:55.197Z,17.80
2023-01-18T10:50:35.307Z,16.90
2023-01-18T10:53:23.588Z,17.37
2023-01-18T10:55:55.308Z,14.90
2023-01-18T10:58:28.795Z,14.00
2023-01-18T11:00:56.436Z,14.53
2023-01-18T11:03:27.695Z,13.53
2023-01-18T11:06:05.151Z,17.30
2023-01-18T11:08:35.168Z,15.93
2023-01-18T11:11:50.376Z,13.37
2023-01-18T11:14:26.149Z,14.90
2023-01-18T11:17:02.129Z,16.80
2023-01-18T11:19:29.613Z,13.87
2023-01-18T11:21:56.554Z,18.87
2023-01-18T11:24:27.738Z,18.83
2023-01-18T11:27:04.245Z,13.90
2023-01-18T11:29:41.558Z,12.47
2023-01-18T11:32:23.724Z,13.93
2023-01-18T11:34:53.662Z,13.32
2023-01-18T11:37:43.436Z,11.00
2023-01-18T11:40:20.275Z,8.40
2023-01-18T11:42:50.882Z,9.32
2023-01-18T11:45:29.332Z,9.88
2023-01-18T11:48:00.736Z,8.60
2023-01-18T11:50:45.521Z,8.05
2023-01-18T11:53:55.063Z,9.10
2023-01-18T11:56:34.065Z,8.50
2023-01-18T11:59:03.066Z,9.05
2023-01-18T12:02:20.788Z,8.85
2023-01-18T12:05:29.607Z,8.82
2023-01-18T12:08:17.804Z,9.55
2023-01-18T12:11:20.362Z,9.88
2023-01-18T12:14:24.767Z,8.15
2023-01-18T12:17:24.909Z,8.13
2023-01-18T12:20:22.957Z,10.40
2023-01-18T12:23:12.107Z,11.90
2023-01-18T12:26:11.736Z,9.52
2023-01-18T12:28:47.471Z,10.57
2023-01-18T12:31:43.293Z,11.32
2023-01-18T12:34:22.461Z,11.40
2023-01-18T12:36:59.197Z,9.27
2023-01-18T12:39:37.185Z,9.63
2023-01-18T12:42:07.994Z,8.93
2023-01-18T12:44:43.633Z,8.85
2023-01-18T12:47:34.795Z,10.45
2023-01-18T12:50:30.540Z,8.75
2023-01-18T12:53:07.689Z,10.00
2023-01-18T12:55:38.243Z,11.80
2023-01-18T12:58:05.924Z,9.88
2023-01-18T13:00:44.624Z,8.30
2023-01-18T13:03:15.410Z,7.20
2023-01-18T13:05:54.736Z,7.72
2023-01-18T13:08:44.770Z,8.88
2023-01-18T13:11:29.951Z,7.72
2023-01-18T13:14:17.882Z,8.43
2023-01-18T13:16:56.392Z,8.07
2023-01-18T13:19:33.513Z,9.45
2023-01-18T13:22:18.143Z,8.52
2023-01-18T13:25:12.112Z,10.00
2023-01-18T13:27:38.808Z,7.80
2023-01-18T13:30:19.769Z,8.43
2023-01-18T13:32:49.526Z,10.43
2023-01-18T13:35:29.278Z,10.80
2023-01-18T13:37:58.940Z,8.65
2023-01-18T13:40:40.996Z,10.23
2023-01-18T13:43:29.777Z,8.55
2023-01-18T13:46:08.937Z,11.32
2023-01-18T13:48:51.101Z,7.50
2023-01-18T13:51:36.407Z,8.30
2023-01-18T13:54:05.137Z,10.90
2023-01-18T13:56:36.593Z,9.18
2023-01-18T13:59:13.039Z,10.25
2023-01-18T14:01:43.822Z,13.45
2023-01-18T14:04:33.242Z,11.60
2023-01-18T14:07:03.671Z,10.85
2023-01-18T14:09:40.780Z,18.30
2023-01-18T14:12:08.109Z,13.38
2023-01-18T14:14:51.945Z,12.32
2023-01-18T14:17:18.625Z,12.83
2023-01-18T14:19:47.845Z,11.93
2023-01-18T14:22:38.754Z,11.80
2023-01-18T14:25:35.837Z,12.40
2023-01-18T14:28:17.412Z,11.83
2023-01-18T14:30:46.330Z,11.23
2023-01-18T14:33:37.936Z,13.10
2023-01-18T14:36:08.870Z,13.02
2023-01-18T14:38:36.759Z,10.05
2023-01-18T14:41:07.193Z,10.00
2023-01-18T14:43:45.776Z,9.25
2023-01-18T14:46:21.567Z,8.93
2023-01-18T14:48:57.473Z,8.30
2023-01-18T14:51:26.181Z,12.10
2023-01-18T14:54:05.275Z,7.88
2023-01-18T14:56:40.265Z,8.80
2023-01-18T14:59:32.084Z,10.27
2023-01-18T15:02:19.064Z,9.13
2023-01-18T15:04:47.263Z,11.88
2023-01-18T15:07:19.361Z,11.93
2023-01-18T15:09:47.051Z,12.23
2023-01-18T15:12:19.627Z,11.18
2023-01-18T15:14:49.349Z,15.00
2023-01-18T15:17:24.542Z,10.33
2023-01-18T15:19:59.631Z,15.07
2023-01-18T15:22:38.774Z,12.87
2023-01-18T15:25:14.764Z,14.43
2023-01-18T15:27:47.443Z,11.10
2023-01-18T15:30:14.429Z,13.10
2023-01-18T15:32:41.549Z,14.47
2023-01-18T15:35:14.275Z,16.00
2023-01-18T15:37:42.504Z,19.03
2023-01-18T15:40:15.589Z,13.43
2023-01-18T15:42:49.376Z,14.57
2023-01-18T15:45:31.909Z,15.67
2023-01-18T15:48:05.566Z,15.20
2023-01-18T15:50:49.444Z,16.57
2023-01-18T15:53:34.390Z,15.03
2023-01-18T15:56:08.294Z,17.37
2023-01-18T15:58:42.956Z,19.37
2023-01-18T16:01:13.294Z,16.50
2023-01-18T16:03:48.436Z,15.60
2023-01-18T16:06:37.357Z,16.00
2023-01-18T16:09:12.165Z,18.00
2023-01-18T16:11:51.961Z,17.80
2023-01-18T16:14:46.561Z,17.17
2023-01-18T16:17:21.161Z,14.13
2023-01-18T16:19:56.683Z,15.27
2023-01-18T16:22:29.443Z,21.40
2023-01-18T16:25:21.198Z,27.60
2023-01-18T16:28:00.623Z,15.57
2023-01-18T16:30:35.409Z,19.67
2023-01-18T16:33:18.390Z,16.97
2023-01-18T16:35:45.854Z,16.13
2023-01-18T16:38:14.381Z,15.57
2023-01-18T16:40:44.961Z,16.30
2023-01-18T16:43:22.742Z,18.07
2023-01-18T16:45:52.014Z,18.77
2023-01-18T16:48:24.452Z,24.73
2023-01-18T16:50:51.987Z,16.60
2023-01-18T16:53:19.787Z,16.53
2023-01-18T16:55:48.390Z,18.10
2023-01-18T16:58:16.384Z,16.10
2023-01-18T17:01:11.019Z,17.10
2023-01-18T17:03:37.868Z,15.50
2023-01-18T17:06:04.997Z,15.43
2023-01-18T17:08:31.939Z,17.53
2023-01-18T17:10:58.676Z,19.47
2023-01-18T17:13:26.601Z,15.93
2023-01-18T17:15:54.190Z,18.97
2023-01-18T17:18:25.914Z,15.77
2023-01-18T17:20:54.118Z,18.50
2023-01-18T17:23:22.002Z,19.27
2023-01-18T17:25:49.075Z,18.00
2023-01-18T17:28:19.141Z,16.53
2023-01-18T17:30:49.504Z,20.20
2023-01-18T17:33:22.420Z,16.00
2023-01-18T17:35:54.200Z,16.77
2023-01-18T17:38:25.085Z,17.03
2023-01-18T17:40:53.080Z,19.70
2023-01-18T17:43:32.199Z,18.13
2023-01-18T17:46:03.202Z,18.87
2023-01-18T17:48:30.685Z,18.20
2023-01-18T17:50:58.500Z,20.97
2023-01-18T17:53:26.578Z,16.70
2023-01-18T17:55:53.643Z,18.97
2023-01-18T17:58:21.363Z,16.30
2023-01-18T18:00:48.928Z,17.63
2023-01-18T18:03:16.819Z,16.77
2023-01-18T18:05:46.413Z,18.07
2023-01-18T18:08:29.673Z,21.07
2023-01-18T18:10:56.534Z,16.23
2023-01-18T18:13:23.184Z,18.13
2023-01-18T18:15:50.286Z,17.73
2023-01-18T18:18:24.193Z,22.27
2023-01-18T18:20:57.605Z,29.60
2023-01-18T18:23:25.262Z,31.30
2023-01-18T18:25:51.814Z,35.57
2023-01-18T18:28:18.884Z,44.13
2023-01-18T18:30:48.773Z,29.90
2023-01-18T18:33:16.175Z,27.67
2023-01-18T18:35:42.786Z,28.00
2023-01-18T18:38:09.416Z,25.23
2023-01-18T18:40:36.084Z,24.80
2023-01-18T18:43:03.300Z,33.30
2023-01-18T18:45:31.680Z,34.50
2023-01-18T18:47:58.318Z,32.67
2023-01-18T18:50:25.030Z,28.40
2023-01-18T18:52:51.613Z,45.47
2023-01-18T18:55:19.070Z,28.33
2023-01-18T18:57:45.687Z,25.63
2023-01-18T19:00:13.339Z,19.57
2023-01-18T19:02:39.979Z,19.67
2023-01-18T19:05:06.922Z,20.10
2023-01-18T19:07:37.318Z,19.57
2023-01-18T19:10:06.248Z,20.87
2023-01-18T19:12:33.161Z,17.00
2023-01-18T19:15:00.016Z,15.50
2023-01-18T19:17:30.837Z,15.50
2023-01-18T19:19:57.922Z,16.17
2023-01-18T19:22:24.648Z,19.87
2023-01-18T19:24:51.383Z,17.47
2023-01-18T19:27:18.035Z,16.60
2023-01-18T19:29:44.709Z,14.63
2023-01-18T19:32:11.285Z,16.50
2023-01-18T19:34:38.712Z,19.47
2023-01-18T19:37:05.524Z,17.83
2023-01-18T19:39:34.823Z,18.83
2023-01-18T19:42:02.424Z,21.43
2023-01-18T19:44:29.435Z,20.73
2023-01-18T19:46:56.877Z,13.53
2023-01-18T19:49:26.424Z,18.27
2023-01-18T19:51:54.309Z,14.57
2023-01-18T19:54:48.598Z,18.47
2023-01-18T19:57:25.545Z,17.83
2023-01-18T19:59:53.914Z,19.00
2023-01-18T20:02:33.510Z,16.83
2023-01-18T20:05:01.174Z,43.27
2023-01-18T20:07:27.788Z,24.53
2023-01-18T20:09:54.402Z,57.20
2023-01-18T20:12:21.324Z,17.83
2023-01-18T20:14:48.709Z,24.30
2023-01-18T20:17:15.381Z,29.33
2023-01-18T20:19:44.316Z,29.37
2023-01-18T20:22:11.116Z,18.00
2023-01-18T20:24:37.801Z,16.20
2023-01-18T20:27:15.395Z,15.40
2023-01-18T20:29:43.338Z,29.87
2023-01-18T20:32:16.106Z,14.73
2023-01-18T20:34:44.773Z,14.93
2023-01-18T20:37:12.598Z,15.13
2023-01-18T20:39:39.839Z,14.00
2023-01-18T20:42:06.519Z,13.90
2023-01-18T20:44:33.540Z,15.60
2023-01-18T20:47:00.198Z,14.73
2023-01-18T20:49:36.944Z,14.83
2023-01-18T20:52:05.905Z,12.17
2023-01-18T20:54:34.709Z,16.33
2023-01-18T20:57:02.323Z,17.13
2023-01-18T20:59:28.978Z,21.90
2023-01-18T21:01:55.916Z,36.00
2023-01-18T21:04:22.707Z,18.03
2023-01-18T21:06:49.827Z,13.43
2023-01-18T21:10:09.519Z,19.03
2023-01-18T21:13:06.707Z,18.17
2023-01-18T21:16:01.481Z,17.33
2023-01-18T21:22:08.250Z,15.40
2023-01-18T21:24:38.692Z,14.23
2023-01-18T21:27:05.456Z,21.90
2023-01-18T21:29:32.164Z,17.27
2023-01-18T21:31:59.231Z,44.07
2023-01-18T21:37:06.640Z,26.03
2023-01-18T21:39:33.495Z,25.13
2023-01-18T21:42:18.963Z,44.63
2023-01-18T21:45:04.402Z,37.33
2023-01-18T21:47:31.082Z,24.00
2023-01-18T21:50:18.309Z,20.97
2023-01-18T21:53:03.885Z,12.53
2023-01-18T21:55:30.687Z,12.00
2023-01-18T21:58:29.459Z,14.57
2023-01-18T22:01:00.315Z,12.47
2023-01-18T22:03:27.184Z,13.57
2023-01-18T22:05:58.658Z,13.63
2023-01-18T22:08:25.268Z,11.67
2023-01-18T22:10:51.841Z,11.50
2023-01-18T22:13:18.416Z,12.20
2023-01-18T22:15:45.130Z,14.20
2023-01-18T22:18:11.870Z,13.07
2023-01-18T22:20:38.608Z,12.10
2023-01-18T22:23:05.229Z,11.67
2023-01-18T22:25:31.849Z,14.67
2023-01-18T22:27:58.927Z,15.70
2023-01-18T22:30:26.725Z,12.97
2023-01-18T22:32:53.341Z,15.50
2023-01-18T22:35:20.189Z,15.37
2023-01-18T22:37:46.766Z,13.57
2023-01-18T22:40:13.702Z,14.73
2023-01-18T22:42:40.410Z,17.07
2023-01-18T22:45:07.877Z,15.43
2023-01-18T22:47:34.538Z,12.13
2023-01-18T22:50:01.150Z,12.63
2023-01-18T22:52:27.705Z,16.80
2023-01-18T22:54:54.349Z,9.57
2023-01-18T22:57:20.976Z,12.53
2023-01-18T22:59:48.526Z,12.40
2023-01-18T23:02:15.307Z,12.43
2023-01-18T23:04:42.020Z,15.00
2023-01-18T23:07:08.933Z,12.37
2023-01-18T23:09:35.620Z,11.97
2023-01-18T23:12:02.219Z,13.00
2023-01-18T23:14:47.544Z,13.07
2023-01-18T23:17:33.156Z,12.97
2023-01-18T23:19:59.830Z,12.60
2023-01-18T23:22:26.778Z,14.03
2023-01-18T23:24:53.421Z,12.37
2023-01-18T23:27:20.033Z,11.80
2023-01-18T23:29:51.448Z,10.73
2023-01-18T23:32:18.093Z,13.50
2023-01-18T23:34:47.639Z,13.57
2023-01-18T23:37:14.196Z,12.57
2023-01-18T23:39:59.519Z,12.57
2023-01-18T23:42:44.726Z,14.50
2023-01-18T23:45:30.273Z,12.17
2023-01-18T23:48:15.321Z,15.17
2023-01-18T23:51:00.801Z,11.30
2023-01-18T23:53:46.144Z,14.10
2023-01-18T23:56:16.688Z,16.17
2023-01-18T23:58:43.583Z,13.30
